Time;durP1;ratioP1;P1;durP2;ratioP2;P2;SDS_P1;SDS_P2;PMS_P1;PMS_P2;Temp;Humidity;BMP_temperature;BMP_pressure;BME280_temperature;BME280_humidity;BME280_pressure;Samples;Min_cycle;Max_cycle;Signal;HPM_P1;HPM_P2
2021/11/29 00:00:58;;;;;;;5.53;3.25;;;2.60;99.90;;;;;;5049497;28;20185;-80
2021/11/29 00:03:26;;;;;;;6.93;4.63;;;2.50;99.90;;;;;;5068954;28;20171;-80
2021/11/29 00:05:52;;;;;;;7.05;5.13;;;2.30;99.90;;;;;;5068894;28;20169;-80
2021/11/29 00:08:18;;;;;;;7.43;4.93;;;2.20;99.90;;;;;;5068889;28;20199;-77
2021/11/29 00:10:44;;;;;;;9.18;5.18;;;2.10;99.90;;;;;;5060183;28;20185;-80
2021/11/29 00:13:10;;;;;;;7.35;5.40;;;2.10;99.90;;;;;;5049836;28;20658;-79
2021/11/29 00:15:36;;;;;;;6.65;2.70;;;2.00;99.90;;;;;;5048644;28;20181;-78
2021/11/29 00:18:02;;;;;;;6.95;4.03;;;2.10;99.90;;;;;;5048618;28;20193;-78
2021/11/29 00:20:29;;;;;;;9.32;4.55;;;2.10;99.90;;;;;;5048821;28;20188;-78
2021/11/29 00:22:54;;;;;;;6.88;4.97;;;1.90;99.90;;;;;;5048599;28;20195;-77
2021/11/29 00:25:21;;;;;;;13.43;7.00;;;1.90;99.90;;;;;;5059824;28;20212;-77
2021/11/29 00:27:46;;;;;;;4.05;3.08;;;1.70;99.90;;;;;;5068392;28;20204;-76
2021/11/29 00:30:14;;;;;;;9.18;5.22;;;1.80;99.90;;;;;;5068440;28;20172;-78
2021/11/29 00:32:41;;;;;;;4.43;3.53;;;1.70;99.90;;;;;;5069652;28;20157;-77
2021/11/29 00:35:07;;;;;;;2.20;1.45;;;1.50;99.90;;;;;;5069608;28;20157;-77
2021/11/29 00:37:34;;;;;;;2.40;2.20;;;1.60;99.90;;;;;;5056061;28;20205;-77
2021/11/29 00:40:01;;;;;;;6.72;2.92;;;1.60;99.90;;;;;;5049675;28;20181;-76
2021/11/29 00:42:27;;;;;;;8.30;4.57;;;1.60;99.90;;;;;;5060740;28;20187;-76
2021/11/29 00:44:53;;;;;;;6.88;4.95;;;1.60;99.90;;;;;;5068137;28;20184;-76
2021/11/29 00:47:19;;;;;;;6.22;4.43;;;1.50;99.90;;;;;;5068077;28;20237;-76
2021/11/29 00:49:45;;;;;;;6.68;4.05;;;1.50;99.90;;;;;;5068019;28;20196;-76
2021/11/29 00:52:11;;;;;;;6.35;4.50;;;1.50;99.90;;;;;;5069352;28;20145;-77
2021/11/29 00:54:37;;;;;;;9.60;4.75;;;1.40;99.90;;;;;;5067909;28;20288;-76
2021/11/29 00:57:03;;;;;;;5.68;3.45;;;1.50;99.90;;;;;;5062782;28;20252;-76
2021/11/29 00:59:28;;;;;;;7.30;3.30;;;1.50;99.90;;;;;;5049172;28;20225;-76
2021/11/29 01:01:54;;;;;;;5.50;3.55;;;1.50;99.90;;;;;;5047973;28;20180;-76
2021/11/29 01:04:21;;;;;;;3.05;2.50;;;1.40;99.90;;;;;;5047974;28;20177;-75
2021/11/29 01:06:47;;;;;;;3.45;2.10;;;1.40;99.90;;;;;;5049189;28;20223;-76
2021/11/29 01:09:13;;;;;;;3.17;2.17;;;1.40;99.90;;;;;;5048704;28;20169;-76
2021/11/29 01:11:39;;;;;;;2.78;1.80;;;1.30;99.90;;;;;;5047881;28;20184;-76
2021/11/29 01:14:05;;;;;;;3.90;1.52;;;1.30;99.90;;;;;;5049124;28;20209;-75
2021/11/29 01:16:32;;;;;;;2.03;1.40;;;1.30;99.90;;;;;;5049151;28;20212;-75
2021/11/29 01:18:58;;;;;;;2.53;1.52;;;1.30;99.90;;;;;;5048976;28;20169;-76
2021/11/29 01:21:24;;;;;;;2.63;1.60;;;1.20;99.90;;;;;;5047920;28;20184;-75
2021/11/29 01:23:52;;;;;;;2.80;2.00;;;1.20;99.90;;;;;;5049098;28;20162;-75
2021/11/29 01:26:18;;;;;;;1.98;1.45;;;1.20;99.90;;;;;;5048959;28;20149;-76
2021/11/29 01:28:43;;;;;;;1.73;1.42;;;1.30;99.90;;;;;;5047684;28;20173;-76
2021/11/29 01:31:10;;;;;;;1.40;1.30;;;1.20;99.90;;;;;;5047670;28;20181;-75
2021/11/29 01:33:35;;;;;;;2.92;1.52;;;1.30;99.90;;;;;;5047712;28;20204;-75
2021/11/29 01:36:02;;;;;;;2.72;1.65;;;1.20;99.90;;;;;;5049122;28;20619;-76
2021/11/29 01:38:28;;;;;;;3.22;1.30;;;1.20;99.90;;;;;;5067241;28;20176;-76
2021/11/29 01:40:54;;;;;;;2.72;1.88;;;1.20;99.90;;;;;;5068855;28;20239;-76
2021/11/29 01:43:20;;;;;;;3.60;1.60;;;1.20;99.90;;;;;;5067483;28;20200;-76
2021/11/29 01:45:52;;;;;;;3.65;2.20;;;1.30;99.90;;;;;;5067409;28;20185;-76
2021/11/29 01:48:20;;;;;;;2.15;1.60;;;1.30;99.90;;;;;;5068693;28;20256;-77
2021/11/29 01:50:49;;;;;;;5.97;4.05;;;1.20;99.90;;;;;;5067567;28;20168;-77
2021/11/29 01:53:16;;;;;;;3.83;2.78;;;1.30;99.90;;;;;;5068687;28;20280;-76
2021/11/29 01:55:44;;;;;;;4.07;2.38;;;1.30;99.90;;;;;;5068719;28;20192;-76
2021/11/29 01:58:10;;;;;;;3.47;2.67;;;1.20;99.90;;;;;;5068444;28;20244;-77
2021/11/29 02:00:41;;;;;;;5.57;2.25;;;1.20;99.90;;;;;;5067368;28;20177;-76
2021/11/29 02:03:07;;;;;;;3.75;2.35;;;1.20;99.90;;;;;;5068695;28;20248;-76
2021/11/29 02:05:33;;;;;;;6.35;2.20;;;1.20;99.90;;;;;;5068679;28;20153;-76
2021/11/29 02:08:00;;;;;;;4.60;2.58;;;1.10;99.90;;;;;;5068525;28;20193;-76
2021/11/29 02:10:27;;;;;;;2.45;2.10;;;1.10;99.90;;;;;;5068609;28;20153;-76
2021/11/29 02:12:53;;;;;;;2.65;1.67;;;1.10;99.90;;;;;;5068496;28;20195;-77
2021/11/29 02:15:20;;;;;;;3.67;2.00;;;1.10;99.90;;;;;;5068504;28;20576;-76
2021/11/29 02:17:46;;;;;;;2.05;1.75;;;1.20;99.90;;;;;;5063808;28;20193;-76
2021/11/29 02:20:14;;;;;;;3.38;2.20;;;1.10;99.90;;;;;;5047198;28;20177;-77
2021/11/29 02:22:44;;;;;;;3.00;2.40;;;1.10;99.90;;;;;;5050348;28;20177;-76
2021/11/29 02:25:12;;;;;;;4.50;2.08;;;1.00;99.90;;;;;;5050596;28;20173;-76
2021/11/29 02:27:44;;;;;;;5.70;2.53;;;1.00;99.90;;;;;;5050630;28;20193;-79
2021/11/29 02:30:13;;;;;;;3.03;2.17;;;1.00;99.90;;;;;;5050731;28;20181;-76
2021/11/29 02:32:39;;;;;;;2.75;2.05;;;1.00;99.90;;;;;;5051918;28;20181;-77
2021/11/29 02:35:06;;;;;;;3.95;2.17;;;1.00;99.90;;;;;;5050514;28;20182;-77
2021/11/29 02:37:32;;;;;;;4.13;2.50;;;1.00;99.90;;;;;;5063581;28;20758;-79
2021/11/29 02:39:57;;;;;;;3.60;2.88;;;1.00;99.90;;;;;;5070507;28;20255;-78
2021/11/29 02:42:24;;;;;;;2.80;2.08;;;1.00;99.90;;;;;;5071688;28;20219;-79
2021/11/29 02:44:50;;;;;;;3.92;2.65;;;1.00;99.90;;;;;;5070531;28;20240;-80
2021/11/29 02:47:16;;;;;;;7.80;2.80;;;1.00;99.90;;;;;;5071606;28;20196;-79
2021/11/29 02:49:42;;;;;;;3.33;2.65;;;1.00;99.90;;;;;;5070393;28;20175;-80
2021/11/29 02:52:12;;;;;;;3.00;2.45;;;1.10;99.90;;;;;;5070345;28;20165;-79
2021/11/29 02:54:40;;;;;;;4.55;3.05;;;1.10;99.90;;;;;;5070205;28;20198;-80
2021/11/29 02:57:12;;;;;;;8.23;3.35;;;1.10;99.90;;;;;;5067794;28;20212;-80
2021/11/29 02:59:40;;;;;;;5.18;2.88;;;1.10;99.90;;;;;;5071332;28;20228;-80
2021/11/29 03:02:10;;;;;;;4.35;2.97;;;1.10;99.90;;;;;;5070017;28;20211;-79
2021/11/29 03:04:37;;;;;;;5.57;3.85;;;1.00;99.90;;;;;;5069867;28;20657;-79
2021/11/29 03:07:04;;;;;;;5.88;3.28;;;1.10;99.90;;;;;;5071250;28;20185;-77
2021/11/29 03:09:32;;;;;;;4.88;2.60;;;1.10;99.90;;;;;;5071246;28;20168;-75
2021/11/29 03:11:58;;;;;;;5.32;3.90;;;1.10;99.90;;;;;;5071064;28;20218;-75
2021/11/29 03:14:25;;;;;;;7.78;4.25;;;1.10;99.90;;;;;;5071084;28;20195;-77
2021/11/29 03:16:53;;;;;;;4.15;2.95;;;1.10;99.90;;;;;;5071042;28;20189;-77
2021/11/29 03:19:19;;;;;;;4.78;2.95;;;1.00;99.90;;;;;;5071022;28;20220;-77
2021/11/29 03:21:46;;;;;;;5.50;3.53;;;1.00;99.90;;;;;;5069958;28;20173;-77
2021/11/29 03:24:11;;;;;;;5.28;3.65;;;1.00;99.90;;;;;;5069723;28;20180;-76
2021/11/29 03:26:39;;;;;;;5.68;3.38;;;1.10;99.90;;;;;;5070933;28;20193;-78
2021/11/29 03:29:10;;;;;;;9.35;3.95;;;1.10;99.90;;;;;;5069648;28;20287;-76
2021/11/29 03:31:38;;;;;;;3.85;3.13;;;1.00;99.90;;;;;;5068926;28;20173;-80
2021/11/29 03:34:05;;;;;;;5.95;4.47;;;1.10;99.90;;;;;;5070584;28;20189;-79
2021/11/29 03:36:34;;;;;;;5.88;3.78;;;1.00;99.90;;;;;;5066930;28;20204;-80
2021/11/29 03:39:03;;;;;;;8.23;3.63;;;1.00;99.90;;;;;;5049340;28;20169;-80
2021/11/29 03:41:29;;;;;;;5.68;4.28;;;1.00;99.90;;;;;;5053744;28;20168;-80
2021/11/29 03:43:56;;;;;;;4.45;3.28;;;1.10;99.90;;;;;;5070371;28;20165;-78
2021/11/29 03:46:22;;;;;;;4.82;3.38;;;1.10;99.90;;;;;;5050501;28;20161;-79
2021/11/29 03:48:47;;;;;;;5.50;4.38;;;1.10;99.90;;;;;;5049136;28;20264;-78
2021/11/29 03:51:14;;;;;;;10.93;4.32;;;1.10;99.90;;;;;;5049179;28;20192;-78
2021/11/29 03:53:40;;;;;;;5.78;3.88;;;1.10;99.90;;;;;;5050267;28;20247;-81
2021/11/29 03:56:06;;;;;;;6.10;4.45;;;1.10;99.90;;;;;;5048971;28;20181;-81
2021/11/29 03:58:32;;;;;;;5.90;4.13;;;1.10;99.90;;;;;;5049530;28;20217;-80
2021/11/29 04:00:58;;;;;;;6.45;4.38;;;1.10;99.90;;;;;;5049044;28;20177;-80
2021/11/29 04:03:24;;;;;;;10.88;4.50;;;1.00;99.90;;;;;;5050190;28;20165;-80
2021/11/29 04:05:50;;;;;;;6.05;4.05;;;1.00;99.90;;;;;;5048853;28;20280;-80
2021/11/29 04:08:16;;;;;;;7.13;4.95;;;1.10;99.90;;;;;;5048577;28;20262;-79
2021/11/29 04:10:42;;;;;;;7.47;3.90;;;1.00;99.90;;;;;;5048678;28;20177;-80
2021/11/29 04:13:09;;;;;;;5.53;3.65;;;1.00;99.90;;;;;;5048768;28;20225;-75
2021/11/29 04:15:36;;;;;;;7.88;4.90;;;1.00;99.90;;;;;;5049777;28;20212;-75
2021/11/29 04:18:04;;;;;;;6.65;4.68;;;1.00;99.90;;;;;;5045501;28;20169;-75
2021/11/29 04:20:30;;;;;;;6.65;4.43;;;1.00;99.90;;;;;;5045104;28;20264;-76
2021/11/29 04:22:57;;;;;;;5.85;4.43;;;1.00;99.90;;;;;;5045290;28;20851;-75
2021/11/29 04:25:25;;;;;;;7.22;5.03;;;1.10;99.90;;;;;;5045521;28;20685;-75
2021/11/29 04:27:53;;;;;;;8.38;3.95;;;1.00;99.90;;;;;;5047395;28;20225;-76
2021/11/29 04:30:24;;;;;;;8.45;5.20;;;1.00;99.90;;;;;;5046171;28;20173;-76
2021/11/29 04:32:53;;;;;;;7.97;5.05;;;1.00;99.90;;;;;;5047333;28;20224;-76
2021/11/29 04:35:19;;;;;;;10.13;3.65;;;1.00;99.90;;;;;;5049473;28;20193;-75
2021/11/29 04:37:45;;;;;;;7.60;3.88;;;1.00;99.90;;;;;;5049596;28;20150;-75
2021/11/29 04:40:12;;;;;;;5.18;3.83;;;1.00;99.90;;;;;;5048373;28;20169;-75
2021/11/29 04:42:38;;;;;;;4.45;3.28;;;1.00;99.90;;;;;;5049414;28;20207;-75
2021/11/29 04:45:06;;;;;;;5.90;3.53;;;1.00;99.90;;;;;;5048405;28;20189;-76
2021/11/29 04:47:32;;;;;;;4.65;3.22;;;0.90;99.90;;;;;;5048050;28;20252;-76
2021/11/29 04:49:58;;;;;;;3.15;2.83;;;1.00;99.90;;;;;;5048013;28;20165;-76
2021/11/29 04:52:25;;;;;;;3.67;2.72;;;0.90;99.90;;;;;;5047994;28;20176;-76
2021/11/29 04:54:51;;;;;;;7.28;3.05;;;0.90;99.90;;;;;;5047745;28;20217;-76
2021/11/29 04:57:16;;;;;;;3.65;2.65;;;0.80;99.90;;;;;;5047951;28;20650;-76
2021/11/29 04:59:42;;;;;;;3.53;3.13;;;0.90;99.90;;;;;;5047722;28;20240;-75
2021/11/29 05:02:08;;;;;;;8.07;2.95;;;0.80;99.90;;;;;;5047544;28;20599;-76
2021/11/29 05:04:34;;;;;;;2.63;2.17;;;0.80;99.90;;;;;;5047615;28;20193;-75
2021/11/29 05:07:00;;;;;;;5.57;2.25;;;0.80;99.90;;;;;;5048027;28;20177;-76
2021/11/29 05:09:26;;;;;;;2.90;2.15;;;0.80;99.90;;;;;;5047765;28;20258;-76
2021/11/29 05:11:52;;;;;;;3.58;2.42;;;0.80;99.90;;;;;;5047743;28;20592;-76
2021/11/29 05:14:18;;;;;;;2.85;1.95;;;0.80;99.90;;;;;;5047524;28;20267;-75
2021/11/29 05:16:44;;;;;;;3.05;2.10;;;0.70;99.90;;;;;;5047730;28;20172;-76
2021/11/29 05:19:11;;;;;;;3.13;1.75;;;0.70;99.90;;;;;;5048896;28;20536;-74
2021/11/29 05:21:37;;;;;;;3.42;2.65;;;0.70;99.90;;;;;;5047405;28;20200;-73
2021/11/29 05:24:04;;;;;;;3.20;2.60;;;0.70;99.90;;;;;;5048704;28;20188;-74
2021/11/29 05:26:30;;;;;;;5.60;3.22;;;0.60;99.90;;;;;;5048858;28;20180;-74
2021/11/29 05:28:57;;;;;;;7.03;2.97;;;0.60;99.90;;;;;;5047397;28;20177;-75
2021/11/29 05:31:24;;;;;;;5.75;3.30;;;0.60;99.90;;;;;;5047492;28;20165;-76
2021/11/29 05:33:51;;;;;;;4.85;3.28;;;0.50;99.90;;;;;;5048975;28;20679;-74
2021/11/29 05:36:17;;;;;;;6.10;2.78;;;0.50;99.90;;;;;;5047462;28;20201;-74
2021/11/29 05:38:44;;;;;;;3.72;2.47;;;0.40;99.90;;;;;;5047373;28;20182;-76
2021/11/29 05:41:10;;;;;;;2.42;2.22;;;0.40;99.90;;;;;;5047591;28;20229;-74
2021/11/29 05:43:37;;;;;;;3.50;2.38;;;0.40;99.90;;;;;;5048514;28;20162;-75
2021/11/29 05:46:03;;;;;;;6.32;3.00;;;0.40;99.90;;;;;;5048523;28;20212;-76
2021/11/29 05:48:30;;;;;;;3.00;2.30;;;0.50;99.90;;;;;;5048766;28;20170;-74
2021/11/29 05:50:58;;;;;;;4.43;3.10;;;0.40;99.90;;;;;;5047017;28;20601;-74
2021/11/29 05:53:24;;;;;;;3.13;2.38;;;0.40;99.90;;;;;;5048303;28;20264;-73
2021/11/29 05:55:51;;;;;;;6.13;2.95;;;0.30;99.90;;;;;;5049228;28;20197;-73
2021/11/29 05:58:17;;;;;;;4.13;2.92;;;0.20;99.90;;;;;;5052215;28;20209;-76
2021/11/29 06:00:43;;;;;;;10.13;3.47;;;0.20;99.90;;;;;;5052157;28;20200;-76
2021/11/29 06:03:09;;;;;;;4.88;3.53;;;0.20;99.90;;;;;;5051003;28;20618;-76
2021/11/29 06:05:35;;;;;;;7.15;3.63;;;0.20;99.90;;;;;;5052072;28;20191;-76
2021/11/29 06:08:01;;;;;;;6.60;3.17;;;0.20;99.90;;;;;;5051833;28;20165;-76
2021/11/29 06:10:28;;;;;;;3.50;2.58;;;0.20;99.90;;;;;;5050571;28;20211;-75
2021/11/29 06:12:53;;;;;;;3.70;2.35;;;0.30;99.90;;;;;;5050660;28;20211;-76
2021/11/29 06:15:19;;;;;;;4.45;2.63;;;0.30;99.90;;;;;;5050438;28;20193;-75
2021/11/29 06:17:46;;;;;;;5.18;2.97;;;0.30;99.90;;;;;;5051985;28;20168;-73
2021/11/29 06:20:19;;;;;;;4.78;2.42;;;0.30;99.90;;;;;;5051640;28;20158;-76
2021/11/29 06:22:47;;;;;;;4.57;2.88;;;0.40;99.90;;;;;;5050092;28;20253;-75
2021/11/29 06:25:13;;;;;;;4.50;2.10;;;0.30;99.90;;;;;;5049872;28;20200;-75
2021/11/29 06:27:38;;;;;;;4.45;3.10;;;0.40;99.90;;;;;;5051798;28;20158;-75
2021/11/29 06:30:05;;;;;;;7.63;3.22;;;0.40;99.90;;;;;;5050449;28;20244;-76
2021/11/29 06:32:31;;;;;;;8.77;4.15;;;0.40;99.90;;;;;;5050169;28;20196;-75
2021/11/29 06:34:57;;;;;;;4.82;4.07;;;0.50;99.90;;;;;;5051659;28;20256;-75
2021/11/29 06:37:27;;;;;;;11.70;4.10;;;0.50;99.90;;;;;;5050325;28;20181;-75
2021/11/29 06:39:54;;;;;;;8.93;3.30;;;0.50;99.90;;;;;;5049913;28;20173;-75
2021/11/29 06:42:20;;;;;;;8.40;4.13;;;0.50;99.90;;;;;;5052731;28;20165;-75
2021/11/29 06:44:46;;;;;;;14.88;5.80;;;0.60;99.90;;;;;;5062364;28;20200;-74
2021/11/29 06:47:12;;;;;;;8.20;3.92;;;0.60;99.90;;;;;;5088359;28;20187;-75
2021/11/29 06:49:38;;;;;;;6.82;3.83;;;0.60;99.90;;;;;;5090142;28;20267;-75
2021/11/29 06:52:05;;;;;;;4.30;3.10;;;0.50;99.90;;;;;;5091338;28;20164;-75
2021/11/29 06:54:35;;;;;;;6.57;3.83;;;0.60;99.90;;;;;;5090994;28;20207;-75
2021/11/29 06:57:01;;;;;;;9.63;6.35;;;0.70;99.90;;;;;;5090058;28;20172;-75
2021/11/29 06:59:28;;;;;;;10.15;6.15;;;0.70;99.90;;;;;;5089790;28;20227;-75
2021/11/29 07:01:55;;;;;;;8.48;4.82;;;0.70;99.90;;;;;;5089925;28;20168;-75
2021/11/29 07:04:21;;;;;;;8.00;4.22;;;0.80;99.90;;;;;;5089919;28;20175;-75
2021/11/29 07:06:48;;;;;;;6.38;4.90;;;1.00;99.90;;;;;;5090388;28;20164;-75
2021/11/29 07:09:15;;;;;;;10.95;5.30;;;1.20;99.90;;;;;;5091115;28;20167;-75
2021/11/29 07:11:41;;;;;;;6.97;5.43;;;1.10;99.90;;;;;;5089541;28;20196;-76
2021/11/29 07:14:08;;;;;;;8.98;5.70;;;1.20;99.90;;;;;;5089748;28;20187;-75
2021/11/29 07:16:35;;;;;;;14.82;6.40;;;1.20;99.90;;;;;;5090743;28;20216;-75
2021/11/29 07:19:02;;;;;;;14.27;7.40;;;1.30;99.90;;;;;;5090987;28;20156;-76
2021/11/29 07:21:29;;;;;;;9.98;6.53;;;1.50;99.90;;;;;;5090952;28;20183;-76
2021/11/29 07:23:55;;;;;;;17.75;8.45;;;1.50;99.90;;;;;;5089559;28;20164;-75
2021/11/29 07:26:23;;;;;;;19.40;10.13;;;1.60;99.90;;;;;;5089480;28;20196;-76
2021/11/29 07:28:49;;;;;;;15.70;8.98;;;1.80;99.90;;;;;;5090526;28;20168;-76
2021/11/29 07:31:15;;;;;;;16.67;9.40;;;1.80;99.90;;;;;;5089349;28;20202;-76
2021/11/29 07:33:42;;;;;;;23.80;9.73;;;1.80;99.90;;;;;;5090663;28;20217;-75
2021/11/29 07:36:08;;;;;;;17.83;10.88;;;1.70;99.90;;;;;;5090359;28;20214;-75
2021/11/29 07:38:34;;;;;;;20.52;11.20;;;1.80;99.90;;;;;;5090832;28;20168;-75
2021/11/29 07:41:00;;;;;;;22.13;9.88;;;1.80;99.90;;;;;;5090665;28;20181;-76
2021/11/29 07:43:26;;;;;;;20.60;9.05;;;1.90;99.90;;;;;;5090405;28;20164;-75
2021/11/29 07:45:52;;;;;;;19.25;8.82;;;2.00;99.90;;;;;;5089462;28;20188;-76
2021/11/29 07:48:21;;;;;;;16.67;8.48;;;2.00;99.90;;;;;;5085847;28;20235;-75
2021/11/29 07:50:48;;;;;;;18.60;8.68;;;2.10;99.90;;;;;;5087202;28;20203;-76
2021/11/29 07:53:14;;;;;;;14.73;8.55;;;2.20;99.90;;;;;;5085995;28;20229;-76
2021/11/29 07:55:40;;;;;;;12.48;7.80;;;2.20;99.90;;;;;;5086411;28;20160;-75
2021/11/29 07:58:06;;;;;;;10.55;6.72;;;2.20;99.90;;;;;;5087390;28;20287;-77
2021/11/29 08:00:35;;;;;;;16.52;9.32;;;2.50;99.90;;;;;;5086109;28;20227;-76
2021/11/29 08:03:04;;;;;;;12.55;7.90;;;2.80;99.90;;;;;;5088610;28;20168;-75
2021/11/29 08:05:31;;;;;;;17.17;9.50;;;3.20;99.90;;;;;;5090050;28;20220;-75
2021/11/29 08:08:00;;;;;;;14.38;8.45;;;3.20;99.90;;;;;;5088675;28;20241;-76
2021/11/29 08:10:26;;;;;;;14.90;8.73;;;3.10;99.90;;;;;;5090121;28;20191;-75
2021/11/29 08:12:53;;;;;;;14.63;9.18;;;3.00;99.90;;;;;;5088643;28;20190;-75
2021/11/29 08:15:21;;;;;;;13.27;8.30;;;3.10;99.90;;;;;;5088337;28;20171;-74
2021/11/29 08:17:48;;;;;;;14.38;9.32;;;3.20;99.90;;;;;;5089512;28;20183;-75
2021/11/29 08:20:18;;;;;;;16.83;9.88;;;3.40;99.90;;;;;;5089790;28;20584;-76
2021/11/29 08:22:44;;;;;;;16.58;10.45;;;3.60;99.90;;;;;;5089558;28;20574;-75
2021/11/29 08:25:10;;;;;;;19.00;11.85;;;4.40;99.90;;;;;;5089741;28;20556;-75
2021/11/29 08:27:36;;;;;;;16.52;9.35;;;5.40;99.90;;;;;;5089711;28;20184;-75
2021/11/29 08:30:06;;;;;;;14.07;10.68;;;5.80;99.90;;;;;;5088191;28;20211;-75
2021/11/29 08:32:32;;;;;;;14.65;10.75;;;6.20;99.90;;;;;;5088328;28;20190;-75
2021/11/29 08:34:58;;;;;;;13.45;9.05;;;6.30;99.90;;;;;;5089528;28;20186;-74
2021/11/29 08:37:24;;;;;;;14.85;9.23;;;6.50;99.90;;;;;;5088184;28;20262;-74
2021/11/29 08:39:50;;;;;;;18.52;9.95;;;6.70;99.90;;;;;;5089090;28;20160;-73
2021/11/29 08:42:16;;;;;;;13.18;9.82;;;6.60;99.90;;;;;;5087017;28;20156;-73
2021/11/29 08:44:42;;;;;;;17.80;11.10;;;5.90;99.90;;;;;;5059638;28;20219;-73
2021/11/29 08:47:08;;;;;;;13.32;9.23;;;6.30;99.90;;;;;;5064638;28;20184;-73
2021/11/29 08:49:35;;;;;;;14.52;9.32;;;6.60;99.90;;;;;;5068018;28;20534;-74
2021/11/29 08:52:01;;;;;;;13.20;9.23;;;6.60;99.90;;;;;;5067823;28;20169;-75
2021/11/29 08:54:27;;;;;;;15.40;10.30;;;7.10;99.90;;;;;;5069209;28;20740;-76
2021/11/29 08:56:53;;;;;;;14.38;8.80;;;7.70;99.90;;;;;;5067967;28;20156;-75
2021/11/29 08:59:20;;;;;;;11.98;7.68;;;8.60;99.90;;;;;;5068857;28;20274;-74
2021/11/29 09:01:50;;;;;;;11.63;8.27;;;9.50;99.90;;;;;;5067544;28;20224;-74
2021/11/29 09:04:16;;;;;;;11.77;7.05;;;10.00;99.90;;;;;;5067806;28;20173;-74
2021/11/29 09:06:42;;;;;;;9.55;6.75;;;10.10;99.90;;;;;;5067632;28;20191;-73
2021/11/29 09:09:11;;;;;;;7.35;5.38;;;10.50;99.90;;;;;;5068863;28;20217;-74
2021/11/29 09:11:37;;;;;;;7.65;5.70;;;10.60;99.90;;;;;;5067355;28;20286;-74
2021/11/29 09:14:03;;;;;;;7.50;5.50;;;11.30;99.90;;;;;;5068195;28;20208;-74
2021/11/29 09:16:28;;;;;;;6.00;5.10;;;11.60;99.90;;;;;;5055436;28;20174;-75
2021/11/29 09:18:54;;;;;;;8.75;5.95;;;11.30;99.90;;;;;;5056900;28;20183;-75
2021/11/29 09:21:22;;;;;;;5.63;4.57;;;11.50;99.90;;;;;;5073092;28;20212;-75
2021/11/29 09:23:49;;;;;;;8.80;5.18;;;11.20;99.90;;;;;;5082350;28;20200;-75
2021/11/29 09:26:16;;;;;;;5.38;4.20;;;11.10;99.90;;;;;;5070467;28;20168;-75
2021/11/29 09:28:42;;;;;;;13.02;4.38;;;10.70;99.90;;;;;;5082032;28;20187;-75
2021/11/29 09:31:09;;;;;;;6.00;4.88;;;11.10;99.90;;;;;;5081293;28;20167;-75
2021/11/29 09:33:36;;;;;;;4.20;3.35;;;11.40;99.90;;;;;;5078746;28;20204;-75
2021/11/29 09:36:03;;;;;;;6.75;2.85;;;11.20;99.90;;;;;;5088916;28;20171;-74
2021/11/29 09:38:30;;;;;;;4.85;2.90;;;9.90;99.90;;;;;;5075686;28;20167;-74
2021/11/29 09:40:56;;;;;;;3.70;2.67;;;9.40;99.90;;;;;;5092536;28;20148;-74
2021/11/29 09:43:22;;;;;;;3.70;2.42;;;9.80;99.90;;;;;;5086873;28;20242;-74
2021/11/29 09:45:50;;;;;;;3.00;2.10;;;10.00;99.90;;;;;;5071651;28;20531;-76
2021/11/29 09:48:17;;;;;;;5.47;3.28;;;10.80;99.90;;;;;;5070589;28;20185;-75
2021/11/29 09:50:47;;;;;;;4.53;2.78;;;10.20;99.90;;;;;;5050993;28;20184;-75
2021/11/29 09:53:18;;;;;;;3.53;3.15;;;10.30;99.90;;;;;;5052198;28;20204;-75
2021/11/29 09:55:45;;;;;;;4.25;2.67;;;10.20;99.90;;;;;;5050417;28;20169;-75
2021/11/29 09:58:11;;;;;;;7.53;3.33;;;10.80;99.90;;;;;;5050825;28;20217;-75
2021/11/29 10:00:41;;;;;;;5.25;3.35;;;10.80;99.90;;;;;;5050967;28;20177;-75
2021/11/29 10:03:07;;;;;;;1.55;1.02;;;11.00;99.90;;;;;;5050939;28;20227;-74
2021/11/29 10:05:36;;;;;;;1.85;0.90;;;10.10;99.90;;;;;;5076577;28;20204;-75
2021/11/29 10:08:32;;;;;;;2.20;0.80;;;9.20;99.90;;;;;;5055534;28;20189;-74
2021/11/29 10:11:11;;;;;;;0.82;0.82;;;9.60;99.90;;;;;;5059089;28;20170;-75
2021/11/29 10:13:50;;;;;;;1.77;0.95;;;11.00;99.90;;;;;;5051625;28;20541;-75
2021/11/29 10:16:35;;;;;;;6.63;3.28;;;11.40;99.90;;;;;;5050605;28;20176;-74
2021/11/29 10:19:04;;;;;;;7.40;4.25;;;11.80;99.90;;;;;;5050524;28;20204;-76
2021/11/29 10:21:30;;;;;;;5.55;3.40;;;10.10;99.90;;;;;;5050506;28;20191;-76
2021/11/29 10:23:58;;;;;;;4.70;3.80;;;10.50;99.90;;;;;;5055274;28;20230;-74
2021/11/29 10:26:35;;;;;;;5.47;3.28;;;12.00;99.90;;;;;;5070673;28;20236;-76
2021/11/29 10:29:09;;;;;;;4.13;3.10;;;12.40;99.90;;;;;;5070343;28;20196;-77
2021/11/29 10:31:40;;;;;;;6.60;3.63;;;11.80;99.90;;;;;;5072175;28;20173;-76
2021/11/29 10:34:13;;;;;;;5.13;3.40;;;12.20;99.90;;;;;;5089920;28;20199;-77
2021/11/29 10:36:53;;;;;;;8.00;3.83;;;11.90;99.90;;;;;;5075029;28;20160;-77
2021/11/29 10:39:26;;;;;;;6.22;3.78;;;12.50;99.90;;;;;;5081298;28;20692;-76
2021/11/29 10:41:58;;;;;;;6.13;3.97;;;12.40;99.90;;;;;;5057694;28;20178;-77
2021/11/29 10:44:27;;;;;;;5.78;3.42;;;12.90;99.90;;;;;;5063301;28;20181;-77
2021/11/29 10:46:57;;;;;;;4.95;2.75;;;11.10;99.90;;;;;;5071275;28;20165;-76
2021/11/29 10:49:27;;;;;;;5.63;3.03;;;9.00;99.90;;;;;;5052360;28;20219;-77
2021/11/29 10:51:57;;;;;;;3.90;3.25;;;7.50;99.90;;;;;;5050111;28;20236;-76
2021/11/29 10:54:27;;;;;;;5.22;3.85;;;7.70;99.90;;;;;;5053679;28;20189;-78
2021/11/29 10:56:56;;;;;;;4.68;3.28;;;7.90;99.90;;;;;;5071654;28;20176;-78
2021/11/29 11:02:08;;;;;;;3.35;2.75;;;8.50;99.90;;;;;;5727940;22;20239;-77
2021/11/29 11:07:45;;;;;;;3.83;3.03;;;9.20;99.90;;;;;;5040188;28;20184;-76
2021/11/29 11:10:51;;;;;;;6.03;3.70;;;8.20;99.90;;;;;;5065724;28;20208;-75
2021/11/29 11:17:33;;;;;;;2.80;1.83;;;7.80;99.90;;;;;;4974475;28;20314;-79
2021/11/29 11:20:06;;;;;;;3.85;0.80;;;7.10;99.90;;;;;;5396882;22;20214;-76
2021/11/29 11:22:38;;;;;;;1.63;0.70;;;6.90;99.90;;;;;;5051321;28;20188;-78
2021/11/29 11:25:06;;;;;;;0.70;0.70;;;7.10;99.90;;;;;;5052667;28;20692;-77
2021/11/29 11:27:41;;;;;;;1.42;0.80;;;6.30;99.90;;;;;;5070652;28;20164;-78
2021/11/29 11:30:11;;;;;;;0.98;0.60;;;6.60;99.90;;;;;;5070684;28;20196;-77
2021/11/29 11:32:49;;;;;;;2.15;0.70;;;5.80;99.90;;;;;;5070339;28;20163;-77
2021/11/29 11:35:22;;;;;;;0.75;0.68;;;5.60;99.90;;;;;;5070428;28;20190;-77
2021/11/29 11:37:54;;;;;;;3.15;1.35;;;5.30;99.90;;;;;;5069395;28;20176;-78
2021/11/29 11:40:29;;;;;;;1.00;0.80;;;5.10;99.90;;;;;;5050895;28;20203;-78
2021/11/29 11:42:56;;;;;;;1.00;0.60;;;4.80;99.90;;;;;;5069760;28;20176;-78
2021/11/29 11:45:25;;;;;;;0.70;0.60;;;4.60;99.90;;;;;;5052349;28;20180;-78
2021/11/29 11:47:54;;;;;;;1.20;0.88;;;4.50;99.90;;;;;;5052069;28;20183;-79
2021/11/29 11:50:25;;;;;;;2.03;0.90;;;4.40;99.90;;;;;;5052185;28;20199;-78
2021/11/29 11:52:53;;;;;;;1.08;0.98;;;4.40;99.90;;;;;;5069419;28;20517;-79
2021/11/29 11:55:22;;;;;;;5.40;0.95;;;4.40;99.90;;;;;;5052085;28;20218;-79
2021/11/29 11:57:52;;;;;;;2.10;0.93;;;4.50;99.90;;;;;;5070061;28;20157;-79
2021/11/29 12:00:23;;;;;;;1.92;1.25;;;4.50;99.90;;;;;;5052372;28;20193;-79
2021/11/29 12:03:07;;;;;;;1.95;1.00;;;4.60;99.90;;;;;;5069818;28;20180;-79
2021/11/29 12:05:47;;;;;;;5.57;0.93;;;4.70;99.90;;;;;;5052491;28;20209;-79
2021/11/29 12:08:38;;;;;;;1.40;1.08;;;4.60;99.90;;;;;;5052218;28;20218;-79
2021/11/29 12:11:23;;;;;;;2.75;0.98;;;4.40;99.90;;;;;;5069869;28;20188;-79
2021/11/29 12:13:50;;;;;;;0.88;0.77;;;4.60;99.90;;;;;;5069362;28;20284;-77
2021/11/29 12:16:35;;;;;;;1.13;0.90;;;5.20;99.90;;;;;;5051803;28;20277;-78
2021/11/29 12:19:03;;;;;;;2.50;0.90;;;5.90;99.90;;;;;;5051035;28;20184;-78
2021/11/29 12:21:40;;;;;;;0.70;0.70;;;5.80;99.90;;;;;;5069150;28;20224;-77
2021/11/29 12:24:27;;;;;;;1.88;1.38;;;5.40;99.90;;;;;;5069022;28;20161;-77
2021/11/29 12:27:03;;;;;;;1.55;0.90;;;5.20;99.90;;;;;;5051528;28;20215;-77
2021/11/29 12:29:29;;;;;;;1.42;1.00;;;5.50;99.90;;;;;;5069352;28;20264;-77
2021/11/29 12:32:01;;;;;;;1.08;0.90;;;5.90;99.90;;;;;;5069609;28;20173;-77
2021/11/29 12:34:49;;;;;;;2.15;0.82;;;5.70;99.90;;;;;;5050998;28;20547;-77
2021/11/29 12:37:32;;;;;;;1.00;0.90;;;5.90;99.90;;;;;;5050608;28;20164;-78
2021/11/29 12:40:03;;;;;;;1.58;0.68;;;5.50;99.90;;;;;;5049720;28;20171;-78
2021/11/29 12:42:35;;;;;;;1.48;0.32;;;5.30;99.90;;;;;;5063754;28;20153;-78
2021/11/29 12:45:04;;;;;;;0.82;0.73;;;5.30;99.90;;;;;;5068082;28;20175;-78
2021/11/29 12:47:51;;;;;;;0.50;0.50;;;5.20;99.90;;;;;;5067908;28;20188;-77
2021/11/29 12:50:35;;;;;;;0.57;0.57;;;5.40;99.90;;;;;;5065767;28;20176;-77
2021/11/29 12:53:13;;;;;;;1.45;1.27;;;5.60;99.90;;;;;;5049953;28;20228;-77
2021/11/29 12:55:40;;;;;;;1.08;0.70;;;5.30;99.90;;;;;;5050388;28;20255;-76
2021/11/29 12:58:06;;;;;;;1.02;0.70;;;5.30;99.90;;;;;;5067876;28;20193;-77
2021/11/29 13:00:35;;;;;;;0.95;0.75;;;5.20;99.90;;;;;;5058333;28;20164;-77
2021/11/29 13:03:03;;;;;;;0.55;0.50;;;4.90;99.90;;;;;;5052598;28;20172;-77
2021/11/29 13:05:33;;;;;;;1.83;0.85;;;4.70;99.90;;;;;;5049026;28;20175;-76
2021/11/29 13:08:02;;;;;;;0.77;0.60;;;4.70;99.90;;;;;;5068490;28;20191;-78